sensor_id;sensor_type;location;lat;lon;timestamp;temperature;humidity
7399;DHT22;3740;50.700;7.184;2023-08-06T00:01:30;16.80;99.90
7399;DHT22;3740;50.700;7.184;2023-08-06T00:03:56;16.70;99.90
7399;DHT22;3740;50.700;7.184;2023-08-06T00:06:21;16.70;99.90
7399;DHT22;3740;50.700;7.184;2023-08-06T00:08:47;16.70;99.90
7399;DHT22;3740;50.700;7.184;2023-08-06T00:11:13;16.70;99.90
7399;DHT22;3740;50.700;7.184;2023-08-06T00:13:38;16.60;99.90
7399;DHT22;3740;50.700;7.184;2023-08-06T00:16:11;16.50;99.90
7399;DHT22;3740;50.700;7.184;2023-08-06T00:18:37;16.50;99.90
7399;DHT22;3740;50.700;7.184;2023-08-06T00:21:03;16.50;99.90
7399;DHT22;3740;50.700;7.184;2023-08-06T00:23:29;16.50;99.90
7399;DHT22;3740;50.700;7.184;2023-08-06T00:25:54;16.40;99.90
7399;DHT22;3740;50.700;7.184;2023-08-06T00:28:20;16.50;99.90
7399;DHT22;3740;50.700;7.184;2023-08-06T00:30:45;16.50;99.90
7399;DHT22;3740;50.700;7.184;2023-08-06T00:33:11;16.50;99.90
7399;DHT22;3740;50.700;7.184;2023-08-06T00:35:36;16.50;99.90
7399;DHT22;3740;50.700;7.184;2023-08-06T00:38:02;16.50;99.90
7399;DHT22;3740;50.700;7.184;2023-08-06T00:40:28;16.50;99.90
7399;DHT22;3740;50.700;7.184;2023-08-06T00:42:56;16.60;99.90
7399;DHT22;3740;50.700;7.184;2023-08-06T00:45:22;16.60;99.90
7399;DHT22;3740;50.700;7.184;2023-08-06T00:47:48;16.50;99.90
7399;DHT22;3740;50.700;7.184;2023-08-06T00:50:14;16.50;99.90
7399;DHT22;3740;50.700;7.184;2023-08-06T00:52:40;16.50;99.90
7399;DHT22;3740;50.700;7.184;2023-08-06T00:55:06;16.50;99.90
7399;DHT22;3740;50.700;7.184;2023-08-06T00:57:32;16.60;99.90
7399;DHT22;3740;50.700;7.184;2023-08-06T00:59:57;16.50;99.90
7399;DHT22;3740;50.700;7.184;2023-08-06T01:02:23;16.60;99.90
7399;DHT22;3740;50.700;7.184;2023-08-06T01:04:49;16.60;99.90
7399;DHT22;3740;50.700;7.184;2023-08-06T01:10:00;16.60;99.90
7399;DHT22;3740;50.700;7.184;2023-08-06T01:12:38;16.60;99.90
7399;DHT22;3740;50.700;7.184;2023-08-06T01:15:07;16.60;99.90
7399;DHT22;3740;50.700;7.184;2023-08-06T01:17:36;16.60;99.90
7399;DHT22;3740;50.700;7.184;2023-08-06T01:20:02;16.60;99.90
7399;DHT22;3740;50.700;7.184;2023-08-06T01:22:29;16.60;99.90
7399;DHT22;3740;50.700;7.184;2023-08-06T01:24:54;16.70;99.90
7399;DHT22;3740;50.700;7.184;2023-08-06T01:27:38;16.60;99.90
7399;DHT22;3740;50.700;7.184;2023-08-06T01:30:16;16.60;99.90
7399;DHT22;3740;50.700;7.184;2023-08-06T01:32:44;16.50;99.90
7399;DHT22;3740;50.700;7.184;2023-08-06T01:35:12;16.60;99.90
7399;DHT22;3740;50.700;7.184;2023-08-06T01:37:39;16.60;99.90
7399;DHT22;3740;50.700;7.184;2023-08-06T01:40:10;16.60;99.90
7399;DHT22;3740;50.700;7.184;2023-08-06T01:42:37;16.60;99.90
7399;DHT22;3740;50.700;7.184;2023-08-06T01:45:03;16.50;99.90
7399;DHT22;3740;50.700;7.184;2023-08-06T01:47:29;16.60;99.90
7399;DHT22;3740;50.700;7.184;2023-08-06T01:49:54;16.40;99.90
7399;DHT22;3740;50.700;7.184;2023-08-06T01:52:20;16.50;99.90
7399;DHT22;3740;50.700;7.184;2023-08-06T01:54:45;16.30;99.90
7399;DHT22;3740;50.700;7.184;2023-08-06T01:57:11;16.30;99.90
7399;DHT22;3740;50.700;7.184;2023-08-06T01:59:36;16.30;99.90
7399;DHT22;3740;50.700;7.184;2023-08-06T02:02:02;16.30;99.90
7399;DHT22;3740;50.700;7.184;2023-08-06T02:04:28;16.30;99.90
7399;DHT22;3740;50.700;7.184;2023-08-06T02:06:53;16.20;99.90
7399;DHT22;3740;50.700;7.184;2023-08-06T02:09:19;16.20;99.90
7399;DHT22;3740;50.700;7.184;2023-08-06T02:11:44;16.20;99.90
7399;DHT22;3740;50.700;7.184;2023-08-06T02:14:10;16.20;99.90
7399;DHT22;3740;50.700;7.184;2023-08-06T02:16:35;16.10;99.90
7399;DHT22;3740;50.700;7.184;2023-08-06T02:19:01;16.10;99.90
7399;DHT22;3740;50.700;7.184;2023-08-06T02:21:26;16.00;99.90
7399;DHT22;3740;50.700;7.184;2023-08-06T02:23:52;16.00;99.90
7399;DHT22;3740;50.700;7.184;2023-08-06T02:26:18;16.00;99.90
7399;DHT22;3740;50.700;7.184;2023-08-06T02:28:43;16.00;99.90
7399;DHT22;3740;50.700;7.184;2023-08-06T02:31:09;16.00;99.90
7399;DHT22;3740;50.700;7.184;2023-08-06T02:33:34;16.00;99.90
7399;DHT22;3740;50.700;7.184;2023-08-06T02:36:01;16.00;99.90
7399;DHT22;3740;50.700;7.184;2023-08-06T02:38:27;16.00;99.90
7399;DHT22;3740;50.700;7.184;2023-08-06T02:40:52;16.00;99.90
7399;DHT22;3740;50.700;7.184;2023-08-06T02:43:18;16.00;99.90
7399;DHT22;3740;50.700;7.184;2023-08-06T02:45:43;16.10;99.90
7399;DHT22;3740;50.700;7.184;2023-08-06T02:48:09;16.10;99.90
7399;DHT22;3740;50.700;7.184;2023-08-06T02:50:39;16.10;99.90
7399;DHT22;3740;50.700;7.184;2023-08-06T02:53:06;16.20;99.90
7399;DHT22;3740;50.700;7.184;2023-08-06T02:55:32;16.20;99.90
7399;DHT22;3740;50.700;7.184;2023-08-06T02:57:59;16.20;99.90
7399;DHT22;3740;50.700;7.184;2023-08-06T03:00:24;16.30;99.90
7399;DHT22;3740;50.700;7.184;2023-08-06T03:02:50;16.30;99.90
7399;DHT22;3740;50.700;7.184;2023-08-06T03:05:16;16.30;99.90
7399;DHT22;3740;50.700;7.184;2023-08-06T03:07:42;16.30;99.90
7399;DHT22;3740;50.700;7.184;2023-08-06T03:10:07;16.30;99.90
7399;DHT22;3740;50.700;7.184;2023-08-06T03:12:33;16.30;99.90
7399;DHT22;3740;50.700;7.184;2023-08-06T03:14:58;16.30;99.90
7399;DHT22;3740;50.700;7.184;2023-08-06T03:17:24;16.30;99.90
7399;DHT22;3740;50.700;7.184;2023-08-06T03:19:49;16.40;99.90
7399;DHT22;3740;50.700;7.184;2023-08-06T03:22:15;16.30;99.90
7399;DHT22;3740;50.700;7.184;2023-08-06T03:24:41;16.40;99.90
7399;DHT22;3740;50.700;7.184;2023-08-06T03:27:06;16.40;99.90
7399;DHT22;3740;50.700;7.184;2023-08-06T03:29:32;16.40;99.90
7399;DHT22;3740;50.700;7.184;2023-08-06T03:31:57;16.40;99.90
7399;DHT22;3740;50.700;7.184;2023-08-06T03:34:23;16.40;99.90
7399;DHT22;3740;50.700;7.184;2023-08-06T03:36:48;16.40;99.90
7399;DHT22;3740;50.700;7.184;2023-08-06T03:39:14;16.40;99.90
7399;DHT22;3740;50.700;7.184;2023-08-06T03:41:40;16.40;99.90
7399;DHT22;3740;50.700;7.184;2023-08-06T03:44:05;16.40;99.90
7399;DHT22;3740;50.700;7.184;2023-08-06T03:46:31;16.40;99.90
7399;DHT22;3740;50.700;7.184;2023-08-06T03:49:00;16.40;99.90
7399;DHT22;3740;50.700;7.184;2023-08-06T03:51:26;16.30;99.90
7399;DHT22;3740;50.700;7.184;2023-08-06T03:53:52;16.30;99.90
7399;DHT22;3740;50.700;7.184;2023-08-06T03:56:17;16.30;99.90
7399;DHT22;3740;50.700;7.184;2023-08-06T03:58:43;16.30;99.90
7399;DHT22;3740;50.700;7.184;2023-08-06T04:01:08;16.30;99.90
7399;DHT22;3740;50.700;7.184;2023-08-06T04:03:34;16.30;99.90
7399;DHT22;3740;50.700;7.184;2023-08-06T04:05:59;16.20;99.90
7399;DHT22;3740;50.700;7.184;2023-08-06T04:08:26;16.20;99.90
7399;DHT22;3740;50.700;7.184;2023-08-06T04:10:52;16.20;99.90
7399;DHT22;3740;50.700;7.184;2023-08-06T04:13:18;16.20;99.90
7399;DHT22;3740;50.700;7.184;2023-08-06T04:15:44;16.20;99.90
7399;DHT22;3740;50.700;7.184;2023-08-06T04:18:10;16.20;99.90
7399;DHT22;3740;50.700;7.184;2023-08-06T04:20:42;16.20;99.90
7399;DHT22;3740;50.700;7.184;2023-08-06T04:23:08;16.20;99.90
7399;DHT22;3740;50.700;7.184;2023-08-06T04:25:34;16.20;99.90
7399;DHT22;3740;50.700;7.184;2023-08-06T04:27:59;16.20;99.90
7399;DHT22;3740;50.700;7.184;2023-08-06T04:30:25;16.20;99.90
7399;DHT22;3740;50.700;7.184;2023-08-06T04:32:50;16.10;99.90
7399;DHT22;3740;50.700;7.184;2023-08-06T04:35:16;16.10;99.90
7399;DHT22;3740;50.700;7.184;2023-08-06T04:37:42;16.10;99.90
7399;DHT22;3740;50.700;7.184;2023-08-06T04:40:08;16.10;99.90
7399;DHT22;3740;50.700;7.184;2023-08-06T04:42:34;16.00;99.90
7399;DHT22;3740;50.700;7.184;2023-08-06T04:45:01;16.00;99.90
7399;DHT22;3740;50.700;7.184;2023-08-06T04:47:27;16.00;99.90
7399;DHT22;3740;50.700;7.184;2023-08-06T04:49:53;15.90;99.90
7399;DHT22;3740;50.700;7.184;2023-08-06T04:52:18;15.90;99.90
7399;DHT22;3740;50.700;7.184;2023-08-06T04:54:44;15.80;99.90
7399;DHT22;3740;50.700;7.184;2023-08-06T04:57:10;15.80;99.90
7399;DHT22;3740;50.700;7.184;2023-08-06T04:59:35;15.80;99.90
7399;DHT22;3740;50.700;7.184;2023-08-06T05:02:01;15.80;99.90
7399;DHT22;3740;50.700;7.184;2023-08-06T05:04:27;15.80;99.90
7399;DHT22;3740;50.700;7.184;2023-08-06T05:06:53;15.80;99.90
7399;DHT22;3740;50.700;7.184;2023-08-06T05:09:18;15.80;99.90
7399;DHT22;3740;50.700;7.184;2023-08-06T05:11:46;15.70;99.90
7399;DHT22;3740;50.700;7.184;2023-08-06T05:14:12;15.70;99.90
7399;DHT22;3740;50.700;7.184;2023-08-06T05:16:37;15.70;99.90
7399;DHT22;3740;50.700;7.184;2023-08-06T05:19:03;15.80;99.90
7399;DHT22;3740;50.700;7.184;2023-08-06T05:21:28;15.80;99.90
7399;DHT22;3740;50.700;7.184;2023-08-06T05:23:54;15.80;99.90
7399;DHT22;3740;50.700;7.184;2023-08-06T05:26:20;15.80;99.90
7399;DHT22;3740;50.700;7.184;2023-08-06T05:28:45;15.80;99.90
7399;DHT22;3740;50.700;7.184;2023-08-06T05:31:11;15.80;99.90
7399;DHT22;3740;50.700;7.184;2023-08-06T05:33:37;15.80;99.90
7399;DHT22;3740;50.700;7.184;2023-08-06T05:36:03;15.80;99.90
7399;DHT22;3740;50.700;7.184;2023-08-06T05:38:29;15.90;99.90
7399;DHT22;3740;50.700;7.184;2023-08-06T05:40:55;15.90;99.90
7399;DHT22;3740;50.700;7.184;2023-08-06T05:43:21;15.90;99.90
7399;DHT22;3740;50.700;7.184;2023-08-06T05:45:49;15.90;99.90
7399;DHT22;3740;50.700;7.184;2023-08-06T05:48:15;15.90;99.90
7399;DHT22;3740;50.700;7.184;2023-08-06T05:50:40;16.00;99.90
7399;DHT22;3740;50.700;7.184;2023-08-06T05:53:06;15.90;99.90
7399;DHT22;3740;50.700;7.184;2023-08-06T05:55:31;15.90;99.90
7399;DHT22;3740;50.700;7.184;2023-08-06T05:57:58;16.00;99.90
7399;DHT22;3740;50.700;7.184;2023-08-06T06:00:24;16.00;99.90
7399;DHT22;3740;50.700;7.184;2023-08-06T06:02:49;16.00;99.90
7399;DHT22;3740;50.700;7.184;2023-08-06T06:05:15;16.00;99.90
7399;DHT22;3740;50.700;7.184;2023-08-06T06:07:40;16.00;99.90
7399;DHT22;3740;50.700;7.184;2023-08-06T06:10:06;16.00;99.90
7399;DHT22;3740;50.700;7.184;2023-08-06T06:12:32;16.00;99.90
7399;DHT22;3740;50.700;7.184;2023-08-06T06:14:58;16.00;99.90
7399;DHT22;3740;50.700;7.184;2023-08-06T06:17:23;16.00;99.90
7399;DHT22;3740;50.700;7.184;2023-08-06T06:19:49;16.10;99.90
7399;DHT22;3740;50.700;7.184;2023-08-06T06:22:14;16.10;99.90
7399;DHT22;3740;50.700;7.184;2023-08-06T06:24:40;16.10;99.90
7399;DHT22;3740;50.700;7.184;2023-08-06T06:27:06;16.20;99.90
7399;DHT22;3740;50.700;7.184;2023-08-06T06:29:31;16.20;99.90
7399;DHT22;3740;50.700;7.184;2023-08-06T06:31:57;16.20;99.90
7399;DHT22;3740;50.700;7.184;2023-08-06T06:34:22;16.20;99.90
7399;DHT22;3740;50.700;7.184;2023-08-06T06:36:48;16.20;99.90
7399;DHT22;3740;50.700;7.184;2023-08-06T06:39:13;16.20;99.90
7399;DHT22;3740;50.700;7.184;2023-08-06T06:41:39;16.30;99.90
7399;DHT22;3740;50.700;7.184;2023-08-06T06:44:05;16.30;99.90
7399;DHT22;3740;50.700;7.184;2023-08-06T06:46:31;16.30;99.90
7399;DHT22;3740;50.700;7.184;2023-08-06T06:48:57;16.30;99.90
7399;DHT22;3740;50.700;7.184;2023-08-06T06:51:22;16.30;99.90
7399;DHT22;3740;50.700;7.184;2023-08-06T06:53:48;16.40;99.90
7399;DHT22;3740;50.700;7.184;2023-08-06T06:56:13;16.40;99.90
7399;DHT22;3740;50.700;7.184;2023-08-06T06:58:39;16.50;99.90
7399;DHT22;3740;50.700;7.184;2023-08-06T07:01:06;16.50;99.90
7399;DHT22;3740;50.700;7.184;2023-08-06T07:03:32;16.50;99.90
7399;DHT22;3740;50.700;7.184;2023-08-06T07:05:58;16.50;99.90
7399;DHT22;3740;50.700;7.184;2023-08-06T07:08:25;16.60;99.90
7399;DHT22;3740;50.700;7.184;2023-08-06T07:10:51;16.60;99.90
7399;DHT22;3740;50.700;7.184;2023-08-06T07:13:24;16.70;99.90
7399;DHT22;3740;50.700;7.184;2023-08-06T07:15:50;16.80;99.90
7399;DHT22;3740;50.700;7.184;2023-08-06T07:18:15;16.90;99.90
7399;DHT22;3740;50.700;7.184;2023-08-06T07:20:41;16.90;99.90
7399;DHT22;3740;50.700;7.184;2023-08-06T07:23:06;17.00;99.90
7399;DHT22;3740;50.700;7.184;2023-08-06T07:25:32;17.00;99.90
7399;DHT22;3740;50.700;7.184;2023-08-06T07:27:57;17.10;99.90
7399;DHT22;3740;50.700;7.184;2023-08-06T07:30:23;17.10;99.90
7399;DHT22;3740;50.700;7.184;2023-08-06T07:32:49;17.20;99.90
7399;DHT22;3740;50.700;7.184;2023-08-06T07:35:14;17.20;99.90
7399;DHT22;3740;50.700;7.184;2023-08-06T07:37:40;17.20;99.90
7399;DHT22;3740;50.700;7.184;2023-08-06T07:40:06;17.30;99.90
7399;DHT22;3740;50.700;7.184;2023-08-06T07:42:32;17.30;99.90
7399;DHT22;3740;50.700;7.184;2023-08-06T07:44:58;17.40;99.90
7399;DHT22;3740;50.700;7.184;2023-08-06T07:47:24;17.50;99.90
7399;DHT22;3740;50.700;7.184;2023-08-06T07:49:49;17.50;99.90
7399;DHT22;3740;50.700;7.184;2023-08-06T07:52:15;17.60;99.90
7399;DHT22;3740;50.700;7.184;2023-08-06T07:54:41;17.60;99.90
7399;DHT22;3740;50.700;7.184;2023-08-06T07:57:06;17.60;99.90
7399;DHT22;3740;50.700;7.184;2023-08-06T07:59:32;17.60;99.90
7399;DHT22;3740;50.700;7.184;2023-08-06T08:01:58;17.60;99.90
7399;DHT22;3740;50.700;7.184;2023-08-06T08:04:23;17.60;99.90
7399;DHT22;3740;50.700;7.184;2023-08-06T08:06:49;17.70;99.90
7399;DHT22;3740;50.700;7.184;2023-08-06T08:09:14;17.60;99.90
7399;DHT22;3740;50.700;7.184;2023-08-06T08:11:41;17.60;99.90
7399;DHT22;3740;50.700;7.184;2023-08-06T08:14:06;17.60;99.90
7399;DHT22;3740;50.700;7.184;2023-08-06T08:16:32;17.50;99.90
7399;DHT22;3740;50.700;7.184;2023-08-06T08:18:58;17.50;99.90
7399;DHT22;3740;50.700;7.184;2023-08-06T08:21:24;17.40;99.90
7399;DHT22;3740;50.700;7.184;2023-08-06T08:23:50;17.40;99.90
7399;DHT22;3740;50.700;7.184;2023-08-06T08:26:16;17.40;99.90
7399;DHT22;3740;50.700;7.184;2023-08-06T08:28:42;17.40;99.90
7399;DHT22;3740;50.700;7.184;2023-08-06T08:31:08;17.40;99.90
7399;DHT22;3740;50.700;7.184;2023-08-06T08:33:34;17.40;99.90
7399;DHT22;3740;50.700;7.184;2023-08-06T08:36:00;17.40;99.90
7399;DHT22;3740;50.700;7.184;2023-08-06T08:38:26;17.50;99.90
7399;DHT22;3740;50.700;7.184;2023-08-06T08:40:53;17.50;99.90
7399;DHT22;3740;50.700;7.184;2023-08-06T08:43:21;17.60;99.90
7399;DHT22;3740;50.700;7.184;2023-08-06T08:45:50;17.60;99.90
7399;DHT22;3740;50.700;7.184;2023-08-06T08:48:17;17.70;99.90
7399;DHT22;3740;50.700;7.184;2023-08-06T08:50:45;17.70;99.90
7399;DHT22;3740;50.700;7.184;2023-08-06T08:53:14;17.80;99.90
7399;DHT22;3740;50.700;7.184;2023-08-06T08:55:40;17.70;99.90
7399;DHT22;3740;50.700;7.184;2023-08-06T08:58:07;17.80;99.90
7399;DHT22;3740;50.700;7.184;2023-08-06T09:00:34;17.60;99.90
7399;DHT22;3740;50.700;7.184;2023-08-06T09:03:00;17.40;99.90
7399;DHT22;3740;50.700;7.184;2023-08-06T09:05:29;17.20;99.90
7399;DHT22;3740;50.700;7.184;2023-08-06T09:08:01;17.10;99.90
7399;DHT22;3740;50.700;7.184;2023-08-06T09:10:27;17.00;99.90
7399;DHT22;3740;50.700;7.184;2023-08-06T09:12:53;17.00;99.90
7399;DHT22;3740;50.700;7.184;2023-08-06T09:15:20;17.00;99.90
7399;DHT22;3740;50.700;7.184;2023-08-06T09:17:49;16.90;99.90
7399;DHT22;3740;50.700;7.184;2023-08-06T09:20:15;16.90;99.90
7399;DHT22;3740;50.700;7.184;2023-08-06T09:22:41;16.80;99.90
7399;DHT22;3740;50.700;7.184;2023-08-06T09:25:07;16.90;99.90
7399;DHT22;3740;50.700;7.184;2023-08-06T09:27:37;16.90;99.90
7399;DHT22;3740;50.700;7.184;2023-08-06T09:30:03;16.90;99.90
7399;DHT22;3740;50.700;7.184;2023-08-06T09:32:49;17.00;99.90
7399;DHT22;3740;50.700;7.184;2023-08-06T09:35:18;17.00;99.90
7399;DHT22;3740;50.700;7.184;2023-08-06T09:37:45;17.00;99.90
7399;DHT22;3740;50.700;7.184;2023-08-06T09:40:32;17.00;99.90
7399;DHT22;3740;50.700;7.184;2023-08-06T09:42:59;16.70;99.90
7399;DHT22;3740;50.700;7.184;2023-08-06T09:45:32;16.60;99.90
7399;DHT22;3740;50.700;7.184;2023-08-06T09:47:59;16.50;99.90
7399;DHT22;3740;50.700;7.184;2023-08-06T09:50:36;16.50;99.90
7399;DHT22;3740;50.700;7.184;2023-08-06T09:53:03;16.40;99.90
7399;DHT22;3740;50.700;7.184;2023-08-06T09:55:29;16.40;99.90
7399;DHT22;3740;50.700;7.184;2023-08-06T09:57:55;16.20;99.90
7399;DHT22;3740;50.700;7.184;2023-08-06T10:00:22;16.10;99.90
7399;DHT22;3740;50.700;7.184;2023-08-06T10:02:48;15.90;99.90
7399;DHT22;3740;50.700;7.184;2023-08-06T10:05:17;15.90;99.90
7399;DHT22;3740;50.700;7.184;2023-08-06T10:07:44;15.80;99.90
7399;DHT22;3740;50.700;7.184;2023-08-06T10:10:11;15.80;99.90
7399;DHT22;3740;50.700;7.184;2023-08-06T10:12:45;15.80;99.90
7399;DHT22;3740;50.700;7.184;2023-08-06T10:15:15;15.80;99.90
7399;DHT22;3740;50.700;7.184;2023-08-06T10:17:42;15.70;99.90
7399;DHT22;3740;50.700;7.184;2023-08-06T10:20:09;15.80;99.90
7399;DHT22;3740;50.700;7.184;2023-08-06T10:22:35;15.70;99.90
7399;DHT22;3740;50.700;7.184;2023-08-06T10:25:03;15.70;99.90
7399;DHT22;3740;50.700;7.184;2023-08-06T10:27:40;15.60;99.90
7399;DHT22;3740;50.700;7.184;2023-08-06T10:30:31;15.60;99.90
7399;DHT22;3740;50.700;7.184;2023-08-06T10:33:02;15.40;99.90
7399;DHT22;3740;50.700;7.184;2023-08-06T10:35:45;15.30;99.90
7399;DHT22;3740;50.700;7.184;2023-08-06T10:38:19;15.00;99.90
7399;DHT22;3740;50.700;7.184;2023-08-06T10:43:37;14.90;99.90
7399;DHT22;3740;50.700;7.184;2023-08-06T10:46:09;14.80;99.90
7399;DHT22;3740;50.700;7.184;2023-08-06T10:51:03;14.70;99.90
7399;DHT22;3740;50.700;7.184;2023-08-06T10:53:30;15.00;99.90
7399;DHT22;3740;50.700;7.184;2023-08-06T10:55:55;14.70;99.90
7399;DHT22;3740;50.700;7.184;2023-08-06T10:58:21;14.60;99.90
7399;DHT22;3740;50.700;7.184;2023-08-06T11:00:46;14.60;99.90
7399;DHT22;3740;50.700;7.184;2023-08-06T11:03:12;14.60;99.90
7399;DHT22;3740;50.700;7.184;2023-08-06T11:05:38;14.50;99.90
7399;DHT22;3740;50.700;7.184;2023-08-06T11:08:03;14.60;99.90
7399;DHT22;3740;50.700;7.184;2023-08-06T11:10:29;14.60;99.90
7399;DHT22;3740;50.700;7.184;2023-08-06T11:12:54;14.50;99.90
7399;DHT22;3740;50.700;7.184;2023-08-06T11:15:20;14.40;99.90
7399;DHT22;3740;50.700;7.184;2023-08-06T11:17:46;14.40;99.90
7399;DHT22;3740;50.700;7.184;2023-08-06T11:20:12;14.40;99.90
7399;DHT22;3740;50.700;7.184;2023-08-06T11:22:38;14.40;99.90
7399;DHT22;3740;50.700;7.184;2023-08-06T11:25:06;14.40;99.90
7399;DHT22;3740;50.700;7.184;2023-08-06T11:27:31;14.40;99.90
7399;DHT22;3740;50.700;7.184;2023-08-06T11:29:57;14.40;99.90
7399;DHT22;3740;50.700;7.184;2023-08-06T11:32:23;14.50;99.90
7399;DHT22;3740;50.700;7.184;2023-08-06T11:34:48;14.50;99.90
7399;DHT22;3740;50.700;7.184;2023-08-06T11:37:14;14.40;99.90
7399;DHT22;3740;50.700;7.184;2023-08-06T11:39:46;14.50;99.90
7399;DHT22;3740;50.700;7.184;2023-08-06T11:42:12;14.50;99.90
7399;DHT22;3740;50.700;7.184;2023-08-06T11:44:37;14.50;99.90
7399;DHT22;3740;50.700;7.184;2023-08-06T11:47:04;14.60;99.90
7399;DHT22;3740;50.700;7.184;2023-08-06T11:49:44;14.50;99.90
7399;DHT22;3740;50.700;7.184;2023-08-06T11:52:20;14.60;99.90
7399;DHT22;3740;50.700;7.184;2023-08-06T11:54:47;14.70;99.90
7399;DHT22;3740;50.700;7.184;2023-08-06T11:57:13;14.70;99.90
7399;DHT22;3740;50.700;7.184;2023-08-06T11:59:39;14.70;99.90
7399;DHT22;3740;50.700;7.184;2023-08-06T12:02:08;14.70;99.90
7399;DHT22;3740;50.700;7.184;2023-08-06T12:05:01;14.70;99.90
7399;DHT22;3740;50.700;7.184;2023-08-06T12:07:29;14.60;99.90
7399;DHT22;3740;50.700;7.184;2023-08-06T12:09:55;14.60;99.90
7399;DHT22;3740;50.700;7.184;2023-08-06T12:12:20;14.70;99.90
7399;DHT22;3740;50.700;7.184;2023-08-06T12:14:46;14.70;99.90
7399;DHT22;3740;50.700;7.184;2023-08-06T12:17:11;14.70;99.90
7399;DHT22;3740;50.700;7.184;2023-08-06T12:19:37;14.70;99.90
7399;DHT22;3740;50.700;7.184;2023-08-06T12:22:03;14.70;99.90
7399;DHT22;3740;50.700;7.184;2023-08-06T12:24:29;14.80;99.90
7399;DHT22;3740;50.700;7.184;2023-08-06T12:26:57;14.80;99.90
7399;DHT22;3740;50.700;7.184;2023-08-06T12:29:23;14.80;99.90
7399;DHT22;3740;50.700;7.184;2023-08-06T12:31:49;14.90;99.90
7399;DHT22;3740;50.700;7.184;2023-08-06T12:34:14;14.90;99.90
7399;DHT22;3740;50.700;7.184;2023-08-06T12:36:40;14.90;99.90
7399;DHT22;3740;50.700;7.184;2023-08-06T12:39:05;14.90;99.90
7399;DHT22;3740;50.700;7.184;2023-08-06T12:41:31;15.00;99.90
7399;DHT22;3740;50.700;7.184;2023-08-06T12:43:56;15.10;99.90
7399;DHT22;3740;50.700;7.184;2023-08-06T12:46:22;15.10;99.90
7399;DHT22;3740;50.700;7.184;2023-08-06T12:48:47;15.10;99.90
7399;DHT22;3740;50.700;7.184;2023-08-06T12:51:14;15.10;99.90
7399;DHT22;3740;50.700;7.184;2023-08-06T12:53:39;15.20;99.90
7399;DHT22;3740;50.700;7.184;2023-08-06T12:56:05;15.10;99.90
7399;DHT22;3740;50.700;7.184;2023-08-06T12:58:31;15.10;99.90
7399;DHT22;3740;50.700;7.184;2023-08-06T13:00:56;15.10;99.90
7399;DHT22;3740;50.700;7.184;2023-08-06T13:03:22;15.20;99.90
7399;DHT22;3740;50.700;7.184;2023-08-06T13:05:47;15.10;99.90
7399;DHT22;3740;50.700;7.184;2023-08-06T13:08:13;15.20;99.90
7399;DHT22;3740;50.700;7.184;2023-08-06T13:10:38;15.30;99.90
7399;DHT22;3740;50.700;7.184;2023-08-06T13:13:04;15.30;99.90
7399;DHT22;3740;50.700;7.184;2023-08-06T13:15:30;15.30;99.90
7399;DHT22;3740;50.700;7.184;2023-08-06T13:17:56;15.30;99.90
7399;DHT22;3740;50.700;7.184;2023-08-06T13:20:21;15.20;99.90
7399;DHT22;3740;50.700;7.184;2023-08-06T13:22:48;15.20;99.90
7399;DHT22;3740;50.700;7.184;2023-08-06T13:25:16;15.30;99.90
7399;DHT22;3740;50.700;7.184;2023-08-06T13:27:42;15.30;99.90
7399;DHT22;3740;50.700;7.184;2023-08-06T13:30:09;15.30;99.90
7399;DHT22;3740;50.700;7.184;2023-08-06T13:32:35;15.30;99.90
7399;DHT22;3740;50.700;7.184;2023-08-06T13:35:03;15.30;99.90
7399;DHT22;3740;50.700;7.184;2023-08-06T13:37:29;15.20;99.90
7399;DHT22;3740;50.700;7.184;2023-08-06T13:39:55;15.20;99.90
7399;DHT22;3740;50.700;7.184;2023-08-06T13:42:20;15.20;99.90
7399;DHT22;3740;50.700;7.184;2023-08-06T13:44:46;15.10;99.90
7399;DHT22;3740;50.700;7.184;2023-08-06T13:47:11;15.20;99.90
7399;DHT22;3740;50.700;7.184;2023-08-06T13:49:37;15.20;99.90
7399;DHT22;3740;50.700;7.184;2023-08-06T13:52:03;15.20;99.90
7399;DHT22;3740;50.700;7.184;2023-08-06T13:54:28;15.20;99.90
7399;DHT22;3740;50.700;7.184;2023-08-06T13:56:54;15.30;99.90
7399;DHT22;3740;50.700;7.184;2023-08-06T13:59:19;15.30;99.90
7399;DHT22;3740;50.700;7.184;2023-08-06T14:01:45;15.20;99.90
7399;DHT22;3740;50.700;7.184;2023-08-06T14:04:11;15.30;99.90
7399;DHT22;3740;50.700;7.184;2023-08-06T14:06:37;15.30;99.90
7399;DHT22;3740;50.700;7.184;2023-08-06T14:09:03;15.30;99.90
7399;DHT22;3740;50.700;7.184;2023-08-06T14:11:28;15.30;99.90
7399;DHT22;3740;50.700;7.184;2023-08-06T14:13:54;15.30;99.90
7399;DHT22;3740;50.700;7.184;2023-08-06T14:16:19;15.20;99.90
7399;DHT22;3740;50.700;7.184;2023-08-06T14:18:45;15.30;99.90
7399;DHT22;3740;50.700;7.184;2023-08-06T14:21:11;15.40;99.90
7399;DHT22;3740;50.700;7.184;2023-08-06T14:23:36;15.50;99.90
7399;DHT22;3740;50.700;7.184;2023-08-06T14:26:02;15.40;99.90
7399;DHT22;3740;50.700;7.184;2023-08-06T14:28:27;15.40;99.90
7399;DHT22;3740;50.700;7.184;2023-08-06T14:30:53;15.40;99.90
7399;DHT22;3740;50.700;7.184;2023-08-06T14:33:18;15.40;99.90
7399;DHT22;3740;50.700;7.184;2023-08-06T14:35:44;15.40;99.90
7399;DHT22;3740;50.700;7.184;2023-08-06T14:38:09;15.40;99.90
7399;DHT22;3740;50.700;7.184;2023-08-06T14:40:35;15.30;99.90
7399;DHT22;3740;50.700;7.184;2023-08-06T14:43:05;15.40;99.90
7399;DHT22;3740;50.700;7.184;2023-08-06T14:45:30;15.50;99.90
7399;DHT22;3740;50.700;7.184;2023-08-06T14:47:56;15.50;99.90
7399;DHT22;3740;50.700;7.184;2023-08-06T14:50:22;15.50;99.90
7399;DHT22;3740;50.700;7.184;2023-08-06T14:52:48;15.60;99.90
7399;DHT22;3740;50.700;7.184;2023-08-06T14:55:26;15.70;99.90
7399;DHT22;3740;50.700;7.184;2023-08-06T14:57:52;15.80;99.90
7399;DHT22;3740;50.700;7.184;2023-08-06T15:00:19;15.70;99.90
7399;DHT22;3740;50.700;7.184;2023-08-06T15:02:44;15.80;99.90
7399;DHT22;3740;50.700;7.184;2023-08-06T15:05:10;15.80;99.90
7399;DHT22;3740;50.700;7.184;2023-08-06T15:07:36;15.80;99.90
7399;DHT22;3740;50.700;7.184;2023-08-06T15:10:04;15.80;99.90
7399;DHT22;3740;50.700;7.184;2023-08-06T15:12:30;15.80;99.90
7399;DHT22;3740;50.700;7.184;2023-08-06T15:14:56;15.80;99.90
7399;DHT22;3740;50.700;7.184;2023-08-06T15:17:22;15.70;99.90
7399;DHT22;3740;50.700;7.184;2023-08-06T15:19:48;15.80;99.90
7399;DHT22;3740;50.700;7.184;2023-08-06T15:22:14;15.70;99.90
7399;DHT22;3740;50.700;7.184;2023-08-06T15:24:39;15.70;99.90
7399;DHT22;3740;50.700;7.184;2023-08-06T15:27:08;15.70;99.90
7399;DHT22;3740;50.700;7.184;2023-08-06T15:29:34;15.80;99.90
7399;DHT22;3740;50.700;7.184;2023-08-06T15:32:00;15.90;99.90
7399;DHT22;3740;50.700;7.184;2023-08-06T15:34:25;15.90;99.90
7399;DHT22;3740;50.700;7.184;2023-08-06T15:36:51;15.90;99.90
7399;DHT22;3740;50.700;7.184;2023-08-06T15:39:16;15.90;99.90
7399;DHT22;3740;50.700;7.184;2023-08-06T15:41:42;16.00;99.90
7399;DHT22;3740;50.700;7.184;2023-08-06T15:44:07;16.00;99.90
7399;DHT22;3740;50.700;7.184;2023-08-06T15:46:33;16.10;99.90
7399;DHT22;3740;50.700;7.184;2023-08-06T15:49:01;15.90;99.90
7399;DHT22;3740;50.700;7.184;2023-08-06T15:51:26;15.90;99.90
7399;DHT22;3740;50.700;7.184;2023-08-06T15:53:52;15.90;99.90
7399;DHT22;3740;50.700;7.184;2023-08-06T15:56:17;15.80;99.90
7399;DHT22;3740;50.700;7.184;2023-08-06T15:58:43;15.80;99.90
7399;DHT22;3740;50.700;7.184;2023-08-06T16:01:09;15.70;99.90
7399;DHT22;3740;50.700;7.184;2023-08-06T16:03:34;15.80;99.90
7399;DHT22;3740;50.700;7.184;2023-08-06T16:06:00;15.80;99.90